Time;durP1;ratioP1;P1;durP2;ratioP2;P2;SDS_P1;SDS_P2;PMS_P1;PMS_P2;Temp;Humidity;BMP_temperature;BMP_pressure;BME280_temperature;BME280_humidity;BME280_pressure;Samples;Min_cycle;Max_cycle;Signal;HPM_P1;HPM_P2
2022/04/22 00:00:01;;;;;;;34.90;10.48;;;;;;;13.47;49.09;99316.25;5045301;28;20061;-56
2022/04/22 00:02:32;;;;;;;28.52;10.20;;;;;;;13.64;48.66;99313.72;5045681;28;20371;-55
2022/04/22 00:05:03;;;;;;;32.85;9.82;;;;;;;13.85;48.07;99306.66;5045324;28;20054;-54
2022/04/22 00:07:33;;;;;;;27.88;9.30;;;;;;;14.03;47.45;99308.47;5045559;28;20061;-55
2022/04/22 00:10:06;;;;;;;29.45;9.73;;;;;;;14.26;46.00;99300.44;5045118;28;20053;-55
2022/04/22 00:12:39;;;;;;;30.92;9.25;;;;;;;14.44;45.85;99294.31;5045386;28;20154;-55
2022/04/22 00:15:10;;;;;;;23.25;8.98;;;;;;;14.58;45.60;99285.81;5044856;28;20105;-54
2022/04/22 00:17:41;;;;;;;96.45;13.10;;;;;;;14.69;44.88;99287.91;5044139;28;20072;-56
2022/04/22 00:20:12;;;;;;;23.83;10.23;;;;;;;14.77;44.98;99276.06;5045175;28;20199;-52
2022/04/22 00:22:44;;;;;;;41.17;9.82;;;;;;;15.02;44.44;99275.69;5044999;28;20051;-55
2022/04/22 00:25:16;;;;;;;27.50;9.57;;;;;;;15.12;43.98;99262.09;5044748;28;20124;-55
2022/04/22 00:27:48;;;;;;;24.00;9.52;;;;;;;15.27;43.61;99269.19;5044574;28;20056;-54
2022/04/22 00:30:19;;;;;;;24.23;8.77;;;;;;;15.41;43.27;99265.88;5044661;28;20045;-54
2022/04/22 00:32:50;;;;;;;25.58;9.32;;;;;;;15.58;43.04;99257.09;5044426;28;20053;-54
2022/04/22 00:35:20;;;;;;;24.40;8.32;;;;;;;15.65;42.59;99253.16;5044850;28;20067;-54
2022/04/22 00:37:51;;;;;;;24.08;9.35;;;;;;;15.81;42.15;99259.38;5044291;28;20072;-53
2022/04/22 00:40:21;;;;;;;23.77;8.82;;;;;;;16.02;41.52;99253.84;5044698;28;20091;-56
2022/04/22 00:42:53;;;;;;;24.38;8.88;;;;;;;16.12;41.56;99236.59;5044570;28;20092;-56
2022/04/22 00:45:24;;;;;;;20.30;8.90;;;;;;;16.21;41.26;99236.09;5043771;28;20038;-53
2022/04/22 00:47:55;;;;;;;42.30;9.45;;;;;;;16.24;40.87;99230.66;5044479;28;20050;-54
2022/04/22 00:50:25;;;;;;;30.33;8.73;;;;;;;16.22;40.84;99243.06;5044729;28;20068;-54
2022/04/22 00:52:56;;;;;;;26.08;9.15;;;;;;;16.24;40.79;99230.66;5043726;28;20049;-56
2022/04/22 00:55:27;;;;;;;32.93;9.60;;;;;;;16.22;40.53;99221.97;5044144;28;20085;-56
2022/04/22 00:58:01;;;;;;;34.70;9.20;;;;;;;16.21;40.61;99230.81;5044831;28;20288;-56
2022/04/22 01:00:32;;;;;;;44.13;9.82;;;;;;;16.26;40.72;99212.97;5044461;28;20284;-56
2022/04/22 01:03:02;;;;;;;27.43;8.73;;;;;;;16.41;40.91;99210.41;5044427;28;20075;-54
2022/04/22 01:11:10;;;;;;;27.37;9.10;;;;;;;16.58;39.83;99207.66;5044258;28;20325;-54
2022/04/22 01:13:43;;;;;;;29.10;9.17;;;;;;;16.54;40.27;99200.84;5044507;28;20283;-56
2022/04/22 01:16:14;;;;;;;22.90;9.63;;;;;;;16.48;39.10;99195.94;5044366;28;20306;-55
2022/04/22 01:18:45;;;;;;;27.70;10.50;;;;;;;16.41;39.42;99194.59;5044110;28;20298;-55
2022/04/22 01:21:17;;;;;;;32.07;9.07;;;;;;;16.48;39.67;99196.78;5043911;28;20347;-54
2022/04/22 01:23:48;;;;;;;21.60;9.00;;;;;;;16.56;39.15;99197.16;5043624;28;20311;-56
2022/04/22 01:26:18;;;;;;;22.43;8.83;;;;;;;16.69;39.94;99168.28;5043735;28;20288;-55
2022/04/22 01:28:49;;;;;;;23.07;9.13;;;;;;;16.93;39.97;99165.19;5043506;28;20298;-56
2022/04/22 01:31:22;;;;;;;27.33;8.67;;;;;;;16.94;39.55;99166.88;5042513;28;20326;-54
2022/04/22 01:33:53;;;;;;;38.07;9.37;;;;;;;16.83;40.32;99164.03;5043866;28;20310;-56
2022/04/22 01:36:25;;;;;;;40.37;10.07;;;;;;;16.87;40.01;99161.09;5043096;28;20299;-55
2022/04/22 01:38:56;;;;;;;27.60;9.20;;;;;;;16.87;40.26;99154.97;5041764;28;20292;-56
2022/04/22 01:41:27;;;;;;;23.10;9.60;;;;;;;16.87;40.40;99136.50;5043627;28;20613;-56
2022/04/22 01:43:57;;;;;;;32.13;9.33;;;;;;;17.00;40.97;99148.03;5042758;28;20304;-55
2022/04/22 01:46:28;;;;;;;33.03;10.70;;;;;;;17.12;40.74;99152.53;5043625;28;20295;-56
2022/04/22 01:48:59;;;;;;;26.40;9.17;;;;;;;17.06;39.70;99144.19;5042975;28;20395;-56
2022/04/22 01:51:32;;;;;;;37.17;10.97;;;;;;;16.98;39.63;99142.00;5043839;28;20805;-54
2022/04/22 01:54:02;;;;;;;42.37;10.23;;;;;;;17.01;40.31;99139.16;5043960;28;20308;-56
2022/04/22 01:56:33;;;;;;;39.60;9.63;;;;;;;17.11;40.83;99129.75;5042938;28;20409;-56
2022/04/22 01:59:03;;;;;;;34.83;8.90;;;;;;;17.25;40.08;99132.41;5043074;28;20292;-55
2022/04/22 02:01:34;;;;;;;25.17;9.00;;;;;;;17.24;39.87;99117.47;5043320;28;20287;-53
2022/04/22 02:04:05;;;;;;;25.83;9.27;;;;;;;17.24;39.18;99106.91;5043212;28;20642;-54
2022/04/22 02:06:37;;;;;;;27.90;8.60;;;;;;;17.08;38.94;99110.63;5043241;28;20295;-52
2022/04/22 02:09:08;;;;;;;31.97;8.70;;;;;;;16.94;39.24;99114.09;5043199;28;20299;-54
2022/04/22 02:11:40;;;;;;;21.60;8.23;;;;;;;16.94;39.95;99087.72;5043398;28;20299;-55
2022/04/22 02:14:12;;;;;;;20.07;8.33;;;;;;;16.92;39.83;99094.88;5043153;28;20314;-55
2022/04/22 02:16:43;;;;;;;23.53;8.20;;;;;;;17.10;40.24;99104.31;5043096;28;20448;-53
2022/04/22 02:19:14;;;;;;;28.97;8.90;;;;;;;17.13;38.94;99093.56;5043521;28;20456;-54
2022/04/22 02:21:47;;;;;;;35.70;9.30;;;;;;;17.14;39.60;99105.78;5043067;28;20363;-51
2022/04/22 02:24:18;;;;;;;30.53;8.97;;;;;;;17.18;39.49;99095.91;5042544;28;20311;-54
2022/04/22 02:29:37;;;;;;;27.20;8.13;;;;;;;17.23;39.69;99089.41;5043077;28;20845;-56
2022/04/22 02:32:08;;;;;;;22.67;7.70;;;;;;;17.22;39.85;99061.31;5041854;28;20287;-54
2022/04/22 02:34:39;;;;;;;21.83;8.10;;;;;;;17.51;39.34;99071.81;5042379;28;20724;-54
2022/04/22 02:37:12;;;;;;;102.47;11.40;;;;;;;17.57;38.59;99066.16;5042436;28;20303;-55
2022/04/22 02:39:43;;;;;;;34.17;8.67;;;;;;;17.56;38.85;99063.59;5042524;28;20288;-56
2022/04/22 02:47:48;;;;;;;23.80;8.53;;;;;;;17.57;37.51;99066.16;5044375;28;20304;-52
2022/04/22 02:50:19;;;;;;;21.30;7.80;;;;;;;17.64;37.28;99054.22;5046785;28;20276;-55
2022/04/22 02:52:51;;;;;;;18.37;8.33;;;;;;;17.68;35.69;99045.16;5046727;28;20303;-56
2022/04/22 02:55:22;;;;;;;28.07;7.70;;;;;;;17.66;36.67;99028.56;5046688;28;20337;-54
2022/04/22 02:57:53;;;;;;;21.07;7.30;;;;;;;17.80;36.91;99024.22;5046767;28;20318;-56
2022/04/22 03:00:24;;;;;;;27.47;7.57;;;;;;;17.86;37.44;99026.44;5046629;28;20359;-54
2022/04/22 03:02:55;;;;;;;27.40;7.63;;;;;;;17.90;36.89;99022.66;5046242;28;20284;-52
2022/04/22 03:05:26;;;;;;;23.73;7.10;;;;;;;17.88;36.68;99024.53;5044967;28;20371;-54
2022/04/22 03:07:58;;;;;;;21.13;8.20;;;;;;;17.85;37.01;99016.81;5046591;28;20340;-56
2022/04/22 03:10:29;;;;;;;25.10;7.80;;;;;;;17.74;36.37;99014.84;5046725;28;20298;-53
2022/04/22 03:13:00;;;;;;;26.17;7.80;;;;;;;17.68;36.39;99010.81;5045779;28;20280;-56
2022/04/22 03:15:32;;;;;;;32.13;8.60;;;;;;;17.68;36.07;99005.53;5046427;28;20319;-54
2022/04/22 03:18:03;;;;;;;23.53;8.27;;;;;;;17.69;36.61;99004.56;5045928;28;20359;-55
2022/04/22 03:20:34;;;;;;;12.00;6.50;;;;;;;17.77;36.13;98992.66;5045752;28;20322;-55
2022/04/22 03:23:06;;;;;;;17.37;7.20;;;;;;;17.80;35.41;98997.78;5046482;28;20298;-55
2022/04/22 03:25:37;;;;;;;31.60;8.47;;;;;;;17.96;35.44;98993.16;5045689;28;20288;-55
2022/04/22 03:28:08;;;;;;;82.57;10.50;;;;;;;18.13;34.42;98984.09;5045601;28;20362;-53
2022/04/22 03:30:39;;;;;;;18.83;7.33;;;;;;;18.14;35.36;98979.66;5045535;28;20296;-55
2022/04/22 03:33:09;;;;;;;34.83;8.17;;;;;;;18.18;35.49;98981.16;5044084;28;20295;-55
2022/04/22 03:35:41;;;;;;;21.93;7.80;;;;;;;18.21;35.05;98971.19;5045666;28;20362;-54
2022/04/22 03:38:14;;;;;;;24.43;7.40;;;;;;;18.13;34.93;98983.25;5045432;28;20395;-57
2022/04/22 03:40:45;;;;;;;19.97;7.50;;;;;;;18.13;35.43;98964.75;5045585;28;20359;-53
2022/04/22 03:43:16;;;;;;;25.43;8.10;;;;;;;18.19;35.18;98951.09;5045853;28;20311;-53
2022/04/22 03:45:48;;;;;;;21.93;7.47;;;;;;;18.05;36.17;98910.63;5045659;28;20288;-56
2022/04/22 03:48:25;;;;;;;24.80;8.23;;;;;;;18.36;35.49;98948.16;5045942;28;20619;-55
2022/04/22 03:50:55;;;;;;;22.80;7.97;;;;;;;18.39;35.80;98953.22;5045923;28;20302;-54
2022/04/22 03:53:27;;;;;;;23.23;7.70;;;;;;;18.26;35.61;98952.38;5045884;28;20280;-55
2022/04/22 03:58:10;;;;;;;22.17;8.17;;;;;;;18.12;36.27;98950.66;5045509;28;20284;-51
2022/04/22 03:58:48;;;;;;;24.57;8.27;;;;;;;18.04;36.28;98945.91;5044873;28;20329;-56
2022/04/22 04:01:18;;;;;;;22.70;9.20;;;;;;;17.95;35.94;98949.19;5044822;28;20297;-55
2022/04/22 04:03:49;;;;;;;21.23;8.03;;;;;;;17.86;36.65;98952.44;5045451;28;20397;-55
2022/04/22 04:06:20;;;;;;;29.00;8.43;;;;;;;17.81;36.95;98946.63;5045453;28;20287;-55
2022/04/22 04:17:14;;;;;;;19.67;7.40;;;;;;;18.10;37.73;98936.72;5045155;28;19917;-56
2022/04/22 04:25:21;;;;;;;51.93;9.63;;;;;;;17.64;40.00;98908.94;5045122;28;20276;-55
2022/04/22 04:27:52;;;;;;;38.53;9.27;;;;;;;17.47;41.24;98922.41;5044806;28;20281;-54
2022/04/22 04:30:23;;;;;;;25.20;7.90;;;;;;;17.49;41.42;98920.53;5043930;28;20296;-56
2022/04/22 04:32:54;;;;;;;26.23;8.80;;;;;;;17.48;41.53;98910.91;5045145;28;20288;-53
2022/04/22 04:35:25;;;;;;;25.47;9.43;;;;;;;17.36;41.37;98914.38;5044795;28;20288;-53
2022/04/22 04:37:56;;;;;;;22.30;7.93;;;;;;;17.16;42.15;98913.88;5044060;28;20347;-53
2022/04/22 04:40:28;;;;;;;46.17;10.40;;;;;;;17.00;42.90;98914.03;5044841;28;20379;-55
2022/04/22 04:43:00;;;;;;;33.33;8.57;;;;;;;16.94;43.59;98908.28;5044656;28;20287;-55
2022/04/22 04:45:31;;;;;;;56.77;10.30;;;;;;;17.05;43.86;98911.09;5044438;28;20287;-54
2022/04/22 04:48:01;;;;;;;39.60;10.53;;;;;;;16.88;44.20;98908.69;5044689;28;20299;-55
2022/04/22 04:50:32;;;;;;;37.40;9.60;;;;;;;16.73;45.03;98921.88;5044107;28;20354;-55
2022/04/22 04:53:03;;;;;;;28.63;9.53;;;;;;;16.56;45.20;98919.44;5044031;28;20325;-55
2022/04/22 04:55:35;;;;;;;31.10;9.93;;;;;;;16.32;46.21;98941.09;5044961;28;20296;-50
2022/04/22 04:58:06;;;;;;;33.67;10.43;;;;;;;16.20;46.68;98938.34;5044613;28;20295;-56
2022/04/22 05:00:37;;;;;;;33.60;10.47;;;;;;;16.16;47.44;98937.72;5044349;28;20307;-55
2022/04/22 05:03:08;;;;;;;35.47;11.23;;;;;;;16.27;47.45;98940.53;5043740;28;20292;-57
2022/04/22 05:05:38;;;;;;;37.10;10.10;;;;;;;16.36;47.66;98939.97;5043777;28;20644;-55
2022/04/22 05:08:10;;;;;;;43.33;11.63;;;;;;;16.33;47.75;98924.34;5042718;28;20364;-55
2022/04/22 05:10:42;;;;;;;30.53;10.67;;;;;;;16.23;47.96;98946.94;5042148;28;20280;-55
2022/04/22 05:13:12;;;;;;;33.47;10.87;;;;;;;16.22;49.08;98947.88;5042410;28;20356;-55
2022/04/22 05:15:43;;;;;;;30.43;11.23;;;;;;;16.20;48.32;98955.03;5043209;28;20277;-51
2022/04/22 05:18:14;;;;;;;34.33;12.43;;;;;;;16.12;48.80;98952.00;5042752;28;20287;-54
2022/04/22 05:20:45;;;;;;;79.77;14.20;;;;;;;15.87;49.03;98974.53;5042944;28;20501;-54
2022/04/22 05:23:15;;;;;;;31.30;11.90;;;;;;;15.61;50.12;98968.13;5043278;28;20290;-54
2022/04/22 05:25:47;;;;;;;29.73;11.60;;;;;;;15.42;50.63;98967.47;5043620;28;20347;-52
2022/04/22 05:28:18;;;;;;;22.43;10.93;;;;;;;15.31;51.40;98973.34;5043722;28;20363;-55
2022/04/22 05:33:46;;;;;;;31.08;10.30;;;;;;;15.53;52.02;98950.13;5140666;27;20356;-55
2022/04/22 05:36:18;;;;;;;21.53;10.23;;;;;;;15.73;51.61;98971.88;5121024;28;20051;-53
2022/04/22 05:38:49;;;;;;;25.20;9.50;;;;;;;15.83;51.81;98946.69;5120969;28;20528;-52
2022/04/22 05:41:19;;;;;;;27.57;10.70;;;;;;;15.83;51.55;98954.59;5120981;28;20273;-53
2022/04/22 05:43:50;;;;;;;36.65;9.93;;;;;;;15.87;51.88;98969.25;5120867;28;20281;-53
2022/04/22 05:46:21;;;;;;;32.90;9.60;;;;;;;15.78;51.46;98947.91;5120855;28;20135;-55
2022/04/22 05:48:53;;;;;;;30.27;9.80;;;;;;;15.64;52.14;98961.84;5120531;28;20277;-52
2022/04/22 05:51:24;;;;;;;26.27;10.10;;;;;;;15.63;52.57;98965.41;5120700;28;20285;-56
2022/04/22 05:53:54;;;;;;;26.93;9.93;;;;;;;15.54;52.64;98962.34;5120375;28;20639;-54
2022/04/22 05:56:25;;;;;;;21.07;9.17;;;;;;;15.47;53.47;98971.53;5120552;28;20692;-55
2022/04/22 05:58:55;;;;;;;20.70;9.13;;;;;;;15.47;53.63;98971.53;5120568;28;20305;-52
2022/04/22 06:01:26;;;;;;;25.65;9.18;;;;;;;15.18;54.55;98922.38;5120442;28;20334;-51
2022/04/22 06:03:58;;;;;;;24.50;9.40;;;;;;;15.42;54.32;98967.47;5120461;28;20059;-55
2022/04/22 06:06:29;;;;;;;22.17;8.17;;;;;;;15.43;54.29;98977.09;5120161;28;20548;-54
2022/04/22 06:11:47;;;;;;;28.60;8.90;;;;;;;15.30;55.06;98963.75;5120304;28;20278;-53
2022/04/22 06:14:17;;;;;;;25.27;8.43;;;;;;;15.22;54.95;98963.34;5120331;28;20286;-55
2022/04/22 06:16:48;;;;;;;18.00;8.20;;;;;;;15.05;54.85;98965.16;5120261;28;20059;-56
2022/04/22 06:19:20;;;;;;;19.63;8.43;;;;;;;15.04;55.57;98966.06;5120217;28;20468;-56
2022/04/22 06:21:51;;;;;;;19.55;8.02;;;;;;;14.96;55.47;98975.31;5120318;28;20046;-56
2022/04/22 06:24:22;;;;;;;19.63;8.80;;;;;;;14.94;56.05;98975.41;5120236;28;20048;-56
2022/04/22 06:26:52;;;;;;;19.67;9.43;;;;;;;14.89;55.97;98978.28;5120307;28;20106;-54
2022/04/22 06:29:24;;;;;;;30.02;8.90;;;;;;;14.83;56.18;98980.41;5120160;28;20100;-55
2022/04/22 06:31:55;;;;;;;19.50;8.00;;;;;;;14.81;56.24;98972.59;5120167;28;20090;-56
2022/04/22 06:34:28;;;;;;;28.10;8.95;;;;;;;14.80;56.09;98980.53;5120492;28;20980;-56
2022/04/22 06:36:59;;;;;;;16.48;7.32;;;;;;;14.88;56.18;98962.59;5120312;28;20051;-56
2022/04/22 06:45:46;;;;;;;16.25;8.25;;;;;;;14.92;56.07;98958.00;5120500;28;20069;-56
2022/04/22 06:47:59;;;;;;;22.05;8.93;;;;;;;14.85;55.72;98954.84;5106725;28;20717;-57
2022/04/22 06:50:32;;;;;;;18.10;8.38;;;;;;;14.83;56.20;98948.84;5106529;28;20036;-56
2022/04/22 06:53:03;;;;;;;14.90;7.18;;;;;;;14.87;55.90;98953.00;5106218;28;20051;-58
2022/04/22 06:55:35;;;;;;;15.57;7.10;;;;;;;14.78;56.07;98950.88;5106426;28;20067;-57
2022/04/22 06:58:10;;;;;;;60.50;8.90;;;;;;;14.74;56.58;98928.31;5106526;28;20047;-56
2022/04/22 07:00:42;;;;;;;26.98;8.35;;;;;;;14.69;56.07;98920.66;5106697;28;20040;-55
2022/04/22 07:03:14;;;;;;;18.42;7.22;;;;;;;14.54;56.25;98909.22;5106134;28;20065;-56
2022/04/22 07:05:49;;;;;;;21.27;7.45;;;;;;;14.70;56.38;98926.75;5106481;28;20063;-57
2022/04/22 07:08:20;;;;;;;17.55;7.85;;;;;;;14.73;56.26;98926.63;5106039;28;20123;-56
2022/04/22 07:10:53;;;;;;;20.47;7.70;;;;;;;14.71;56.39;98923.22;5106258;28;20084;-56
2022/04/22 07:13:24;;;;;;;25.25;8.15;;;;;;;14.70;56.45;98922.34;5105978;28;20753;-56
2022/04/22 07:15:56;;;;;;;42.97;8.93;;;;;;;14.71;56.72;98912.72;5106102;28;20059;-56
2022/04/22 07:18:27;;;;;;;23.05;8.00;;;;;;;14.65;56.71;98920.00;5106126;28;20047;-56
2022/04/22 07:21:00;;;;;;;26.92;8.05;;;;;;;14.59;57.21;98925.56;5105735;28;20039;-56
2022/04/22 07:23:31;;;;;;;17.38;6.82;;;;;;;14.53;56.96;98920.66;5105924;28;20043;-57
2022/04/22 07:26:04;;;;;;;19.08;6.88;;;;;;;14.37;57.32;98912.69;5105805;28;20139;-57
2022/04/22 07:28:35;;;;;;;19.20;7.03;;;;;;;14.22;57.12;98917.00;5105962;28;20048;-57
2022/04/22 07:31:08;;;;;;;31.50;7.97;;;;;;;14.12;57.48;98920.19;5105453;28;20518;-57
2022/04/22 07:33:39;;;;;;;26.48;7.82;;;;;;;14.08;57.70;98924.78;5105464;28;20060;-57
2022/04/22 07:36:12;;;;;;;19.55;6.82;;;;;;;14.06;57.79;98916.13;5105743;28;20542;-57
2022/04/22 07:38:44;;;;;;;15.02;6.68;;;;;;;14.01;57.91;98923.38;5105840;28;20367;-57
2022/04/22 07:41:19;;;;;;;39.05;7.60;;;;;;;13.85;58.05;98901.47;5105173;28;20259;-56
2022/04/22 07:46:58;;;;;;;19.25;6.57;;;;;;;13.96;58.10;98920.16;5105803;28;20051;-56
2022/04/22 07:49:29;;;;;;;15.52;6.25;;;;;;;13.94;58.05;98916.75;5104992;28;20106;-56
2022/04/22 07:52:01;;;;;;;18.33;6.63;;;;;;;13.85;58.24;98919.84;5105361;28;20084;-56
2022/04/22 07:54:32;;;;;;;22.05;7.10;;;;;;;13.75;58.56;98917.69;5104699;28;20520;-56
2022/04/22 07:57:03;;;;;;;14.93;7.05;;;;;;;13.71;58.68;98916.16;5104386;28;20083;-55
2022/04/22 07:59:33;;;;;;;20.33;6.75;;;;;;;13.65;58.67;98932.19;5104555;28;20063;-56
2022/04/22 08:02:05;;;;;;;16.17;6.95;;;;;;;13.58;59.12;98925.56;5105062;28;20074;-57
2022/04/22 08:04:36;;;;;;;15.60;7.18;;;;;;;13.51;59.15;98908.44;5105021;28;20060;-55
2022/04/22 08:07:09;;;;;;;28.85;7.63;;;;;;;13.51;59.09;98918.94;5104694;28;20066;-55
2022/04/22 08:09:55;;;;;;;18.05;6.47;;;;;;;13.51;59.50;98918.94;5104695;28;20059;-56
2022/04/22 08:12:27;;;;;;;17.67;6.90;;;;;;;13.50;59.58;98912.81;5106890;28;20082;-55
2022/04/22 08:14:59;;;;;;;14.57;6.40;;;;;;;13.52;59.40;98910.97;5104993;28;20527;-56
2022/04/22 08:17:36;;;;;;;15.05;6.55;;;;;;;13.55;59.40;98920.47;5104316;28;20108;-56
2022/04/22 08:20:08;;;;;;;19.00;6.80;;;;;;;13.59;59.03;98911.50;5084300;28;20048;-57
2022/04/22 08:22:43;;;;;;;15.23;7.03;;;;;;;13.62;59.33;98916.59;5073228;28;20064;-56
2022/04/22 08:25:14;;;;;;;19.00;7.15;;;;;;;13.49;59.37;98905.03;5073662;28;20052;-55
2022/04/22 08:27:46;;;;;;;12.95;6.60;;;;;;;13.49;59.27;98926.03;5073821;28;20081;-56
2022/04/22 08:30:17;;;;;;;17.77;7.25;;;;;;;13.45;59.57;98913.97;5073811;28;20509;-57
2022/04/22 08:32:48;;;;;;;19.33;5.90;;;;;;;13.42;59.78;98914.13;5072930;28;20350;-56
2022/04/22 08:35:18;;;;;;;16.23;7.40;;;;;;;13.33;60.05;98905.81;5072663;28;20060;-56
2022/04/22 08:37:51;;;;;;;43.47;8.02;;;;;;;13.24;60.40;98900.97;5073623;28;20087;-58
2022/04/22 08:40:22;;;;;;;25.90;8.18;;;;;;;13.24;60.15;98911.47;5073443;28;20075;-56
2022/04/22 08:42:53;;;;;;;18.58;6.93;;;;;;;13.19;60.58;98908.22;5073582;28;20049;-56
2022/04/22 08:45:27;;;;;;;18.65;7.32;;;;;;;13.12;60.63;98906.81;5073510;28;20060;-53
2022/04/22 08:50:52;;;;;;;14.73;7.20;;;;;;;12.97;61.53;98891.81;5073352;28;20123;-55
2022/04/22 08:53:30;;;;;;;20.17;7.10;;;;;;;12.93;61.66;98886.72;5073502;28;20048;-56
2022/04/22 08:56:05;;;;;;;15.55;7.00;;;;;;;12.88;62.02;98873.00;5073265;28;20068;-56
2022/04/22 08:58:36;;;;;;;14.82;6.57;;;;;;;12.87;62.09;98870.44;5073062;28;20087;-55
2022/04/22 09:01:08;;;;;;;20.92;7.53;;;;;;;12.88;61.98;98875.59;5072926;28;20112;-56
2022/04/22 09:03:39;;;;;;;14.20;7.28;;;;;;;12.87;62.30;98859.94;5072602;28;20070;-54
2022/04/22 09:06:11;;;;;;;17.70;7.13;;;;;;;12.81;62.47;98868.97;5073054;28;20044;-55
2022/04/22 09:08:44;;;;;;;16.95;7.78;;;;;;;12.74;62.80;98870.16;5073460;28;20051;-55
2022/04/22 09:11:16;;;;;;;17.80;7.35;;;;;;;12.65;63.15;98865.34;5073510;28;20054;-56
2022/04/22 09:14:05;;;;;;;26.23;7.80;;;;;;;12.55;63.51;98864.09;5073029;28;20174;-56
2022/04/22 09:16:35;;;;;;;15.10;7.30;;;;;;;12.41;64.14;98852.50;5073289;28;20059;-56
2022/04/22 09:19:06;;;;;;;19.35;8.48;;;;;;;12.34;64.26;98872.03;5072879;28;20060;-54
2022/04/22 09:21:38;;;;;;;27.42;8.27;;;;;;;12.21;64.55;98855.19;5073297;28;20106;-53
2022/04/22 09:24:15;;;;;;;14.13;7.60;;;;;;;12.06;65.05;98852.34;5073295;28;20049;-55
2022/04/22 09:26:46;;;;;;;20.90;8.68;;;;;;;12.01;65.55;98849.06;5073208;28;20056;-57
2022/04/22 09:29:17;;;;;;;20.23;9.18;;;;;;;11.93;65.99;98861.66;5071270;28;20048;-56
2022/04/22 09:31:48;;;;;;;21.42;9.60;;;;;;;11.89;65.93;98860.09;5070612;28;20052;-56
2022/04/22 09:34:36;;;;;;;33.90;9.70;;;;;;;11.77;66.55;98865.81;5072962;28;20343;-54
2022/04/22 09:42:57;;;;;;;24.50;10.15;;;;;;;11.52;67.42;98874.72;5073008;28;20059;-54
2022/04/22 09:45:38;;;;;;;27.35;11.68;;;;;;;11.43;67.57;98872.47;5071884;28;20045;-56
2022/04/22 09:48:15;;;;;;;29.90;10.15;;;;;;;11.35;68.11;98864.13;5072798;28;20056;-56
2022/04/22 09:50:47;;;;;;;29.35;9.70;;;;;;;11.36;67.91;98881.53;5073261;28;20347;-54
2022/04/22 09:53:18;;;;;;;23.67;9.73;;;;;;;11.35;68.08;98875.41;5072722;28;20048;-56
2022/04/22 09:55:54;;;;;;;17.65;9.65;;;;;;;11.31;68.13;98866.03;5072705;28;20063;-54
2022/04/22 09:58:26;;;;;;;17.83;9.07;;;;;;;11.30;68.38;98864.31;5072667;28;20109;-55
2022/04/22 10:01:02;;;;;;;22.70;9.38;;;;;;;11.27;68.35;98860.97;5072601;28;20056;-56
2022/04/22 10:03:34;;;;;;;18.85;9.40;;;;;;;11.16;68.49;98843.97;5072525;28;20939;-55
2022/04/22 10:06:06;;;;;;;21.20;8.80;;;;;;;11.25;69.09;98852.34;5072382;28;20052;-56
2022/04/22 10:08:37;;;;;;;16.88;8.40;;;;;;;11.30;69.03;98850.38;5072810;28;20323;-54
2022/04/22 10:11:11;;;;;;;13.45;7.60;;;;;;;11.38;68.66;98863.97;5072733;28;20554;-57
2022/04/22 10:13:43;;;;;;;16.50;7.75;;;;;;;11.28;68.60;98846.97;5072832;28;20335;-56
2022/04/22 10:16:15;;;;;;;16.90;7.68;;;;;;;11.34;69.01;98857.19;5072442;28;20052;-56
2022/04/22 10:18:46;;;;;;;12.32;7.38;;;;;;;11.39;69.18;98871.78;5073421;28;20412;-54
2022/04/22 10:21:17;;;;;;;39.22;8.75;;;;;;;11.41;68.89;98876.94;5076244;28;20052;-54
2022/04/22 10:23:48;;;;;;;20.85;8.30;;;;;;;11.42;69.11;98860.34;5075843;28;20052;-55
2022/04/22 10:26:21;;;;;;;20.05;8.35;;;;;;;11.42;69.20;98849.88;5076213;28;20075;-55
2022/04/22 10:28:52;;;;;;;19.58;7.80;;;;;;;11.43;68.86;98841.09;5076130;28;20417;-56
2022/04/22 10:31:25;;;;;;;16.88;7.35;;;;;;;11.43;68.87;98846.31;5075902;28;20364;-57
2022/04/22 10:34:07;;;;;;;16.45;7.13;;;;;;;11.47;68.58;98850.53;5076069;28;20095;-56
2022/04/22 10:36:38;;;;;;;17.52;7.65;;;;;;;11.53;68.48;98845.03;5075814;28;20059;-55
2022/04/22 10:39:09;;;;;;;15.50;7.07;;;;;;;11.49;68.46;98843.47;5075815;28;20049;-56
2022/04/22 10:41:48;;;;;;;17.38;7.85;;;;;;;11.48;68.29;98827.81;5074505;28;20256;-56
2022/04/22 10:47:15;;;;;;;15.98;7.03;;;;;;;11.45;68.00;98828.81;5075235;28;19924;-54
2022/04/22 10:49:47;;;;;;;20.70;7.65;;;;;;;11.36;68.17;98813.53;5075813;28;20052;-55
2022/04/22 10:52:22;;;;;;;14.55;7.60;;;;;;;11.42;68.15;98831.56;5075693;28;20051;-56
2022/04/22 10:55:15;;;;;;;40.70;8.23;;;;;;;11.41;68.25;98816.81;5075604;28;20273;-55
2022/04/22 10:57:51;;;;;;;13.60;7.00;;;;;;;11.42;68.51;98828.94;5074115;28;20067;-55
2022/04/22 11:00:29;;;;;;;13.50;7.63;;;;;;;11.40;68.48;98826.38;5074751;28;20102;-56
2022/04/22 11:03:15;;;;;;;19.02;7.43;;;;;;;10.83;68.57;98748.66;5074789;28;20308;-56
2022/04/22 11:05:53;;;;;;;13.43;7.00;;;;;;;11.32;69.04;98827.66;5075650;28;20080;-55
2022/04/22 11:08:32;;;;;;;19.10;7.43;;;;;;;11.09;69.06;98781.56;5072908;28;20086;-54
2022/04/22 11:11:20;;;;;;;16.17;7.88;;;;;;;11.33;69.12;98818.88;5075147;28;20242;-56
2022/04/22 11:13:53;;;;;;;13.77;6.75;;;;;;;11.36;69.52;98818.75;5075516;28;20119;-56
2022/04/22 11:16:29;;;;;;;16.40;7.13;;;;;;;11.38;69.28;98817.78;5075243;28;20052;-55
2022/04/22 11:19:26;;;;;;;13.57;7.10;;;;;;;11.38;69.41;98809.06;5075348;28;20059;-55
2022/04/22 11:21:58;;;;;;;15.40;7.75;;;;;;;11.37;69.24;98815.22;5075181;28;20043;-55
2022/04/22 11:24:31;;;;;;;16.77;9.90;;;;;;;11.33;69.90;98814.50;5074885;28;20072;-54
2022/04/22 11:27:08;;;;;;;25.27;11.95;;;;;;;11.18;69.78;98799.44;5075480;28;20067;-54
2022/04/22 11:29:40;;;;;;;21.48;10.52;;;;;;;11.09;70.55;98819.00;5074976;28;20140;-54
2022/04/22 11:32:21;;;;;;;29.45;12.50;;;;;;;10.76;70.53;98782.88;5074900;28;20059;-54
2022/04/22 11:35:14;;;;;;;26.33;13.35;;;;;;;10.85;71.00;98814.78;5074860;28;20053;-55
2022/04/22 11:37:45;;;;;;;32.38;12.85;;;;;;;10.65;72.15;98811.19;5075292;28;20060;-56
2022/04/22 11:40:21;;;;;;;22.00;12.90;;;;;;;10.54;73.29;98810.78;5075339;28;20078;-54
2022/04/22 11:42:54;;;;;;;31.67;13.35;;;;;;;10.49;74.12;98810.13;5074874;28;20060;-56
2022/04/22 11:45:28;;;;;;;27.67;13.45;;;;;;;10.41;74.68;98809.53;5074117;28;20086;-56
2022/04/22 11:48:07;;;;;;;30.77;13.05;;;;;;;10.40;74.96;98815.69;5074839;28;20052;-56
2022/04/22 11:50:41;;;;;;;26.65;11.98;;;;;;;10.29;75.45;98796.06;5074418;28;20044;-55
2022/04/22 11:53:16;;;;;;;24.58;11.93;;;;;;;10.07;75.40;98756.84;5074578;28;20044;-56
2022/04/22 11:55:48;;;;;;;25.45;11.45;;;;;;;10.34;75.55;98801.97;5074657;28;20053;-56
2022/04/22 11:58:20;;;;;;;23.25;12.52;;;;;;;10.18;75.81;98795.59;5073735;28;20098;-54
2022/04/22 12:06:41;;;;;;;32.83;12.90;;;;;;;10.03;77.03;98806.59;5074203;28;20060;-56
2022/04/22 12:09:12;;;;;;;29.98;12.50;;;;;;;10.02;76.67;98810.13;5073545;28;20158;-56
2022/04/22 12:11:45;;;;;;;26.80;13.70;;;;;;;9.98;76.76;98811.16;5073905;28;20075;-54
2022/04/22 12:14:24;;;;;;;30.33;14.00;;;;;;;9.93;76.66;98801.75;5074244;28;20123;-55
2022/04/22 12:16:59;;;;;;;;;;;;;;;9.90;76.72;98807.06;5074525;28;20242;-56
2022/04/22 12:19:31;;;;;;;30.30;12.93;;;;;;;9.87;76.99;98795.91;5074036;28;19924;-56
2022/04/22 12:22:04;;;;;;;30.33;12.85;;;;;;;9.84;76.81;98791.66;5074048;28;20645;-53
2022/04/22 12:24:35;;;;;;;26.63;12.70;;;;;;;9.82;76.77;98788.25;5073769;28;20378;-56
2022/04/22 12:27:24;;;;;;;36.75;14.07;;;;;;;9.78;76.68;98781.41;5073765;28;20063;-54
2022/04/22 12:30:02;;;;;;;26.20;12.32;;;;;;;9.79;76.35;98772.72;5073643;28;20058;-55
2022/04/22 12:32:36;;;;;;;33.42;12.73;;;;;;;9.74;76.95;98769.41;5072985;28;20052;-57
2022/04/22 12:35:14;;;;;;;34.08;11.82;;;;;;;9.70;77.09;98765.22;5073440;28;20059;-55
2022/04/22 12:37:54;;;;;;;31.38;12.45;;;;;;;9.24;76.57;98660.00;5076195;28;20056;-53
2022/04/22 12:40:26;;;;;;;23.42;11.30;;;;;;;9.86;76.48;98748.09;5072705;28;20060;-55
2022/04/22 12:43:17;;;;;;;22.80;11.95;;;;;;;9.84;76.18;98744.69;5075714;28;20049;-54
2022/04/22 12:54:34;;;;;;;23.83;11.25;;;;;;;9.89;77.14;98721.03;5076226;28;20112;-55
2022/04/22 12:57:06;;;;;;;26.60;11.75;;;;;;;9.89;77.38;98714.06;5074690;28;20048;-54